Race profile

Bank of America Chicago
Chicago IL/USA
12 Oct 2014
Road
Marathon
Record quality course
Men: -7.83 sec (-0.18 sec/km)
Women: -88.29 sec (-2.09 sec/km)
Men: 858
Women: 886
Total: 40801
Men: 22299
Women: 18502
$700,500
Chicago

Results (men)

Finished Time Flags Given name Surname Alternate name Citizenship Birth date Prize money Actions
1 2:04:11 Eliud Kipchoge KEN 05 Nov 1984 $155,000
2 2:04:28 Sammy Kitwara Kirop KEN 26 Nov 1986 $90,000
3 2:04:32 Dickson Kiptolo Chumba KEN 27 Oct 1986 $65,000
4 2:05:51 Kenenisa Bekele Beyeche ETH 13 Jun 1982 $25,000
5 2:08:30 Bernard Koech Kiprop KEN 31 Jan 1988 $10,000
6 2:09:08 Ghirmay Ghebreslassie Embaye ERI 14 Nov 1995
7 2:10:42 Lani Kiplagat Rutto KEN 29 Mar 1989
8 2:11:09 Wesley Korir KEN 15 Nov 1982
9 2:11:20 Robert Curtis USA 28 Nov 1984 $12,500
10 2:11:43 Koji Kobayashi JPN 16 Jan 1989
11 2:13:16 Jacob Riley USA 11 Feb 1988 $10,000
12 2:13:45 Gabriel Proctor USA 29 Apr 1990 $7,500
13 2:14:30 Christopher Landry USA 29 Apr 1986 $5,000
14 2:14:40 Timothy Young USA 22 Mar 1987 $3,500
15 2:14:42 Michael Morgan USA 20 Feb 1980 $2,500
16 2:15:19 Naoki Okamoto JPN 26 May 1984
17 2:15:25 Satoru Sasaki JPN 16 Oct 1985
18 2:15:33 Ryosuke Fukuyama JPN 25 Sep 1980
19 2:16:00 Craig Leon USA 08 Nov 1984 $2,500
20 2:16:49 Carlos Trujillo GUA 17 Jul 1985 $2,500
21 2:17:30 Rui Yonezawa JPN 26 Aug 1986
22 2:17:31 Jason Witt USA 09 Dec 1989 $2,500
23 2:17:38 Jonathan Dewitt USA 30 Apr 1991 $2,500
24 2:17:43 Matthew Llano USA 01 Aug 1988 $2,500
25 2:18:04 Patrick Rizzo USA 25 Jul 1983
26 2:18:13 Jesse Davis USA 14 Nov 1981
27 2:18:19 Lucas Humphrey USA 10 Apr 1981
28 2:18:30 Brendan Gregg USA 15 May 1989
29 2:18:55 Jed Christiansen USA 16 Feb 1987
30 2:19:53 Thomas Frazer IRL 10 Sep 1981
31 2:20:28 Matthew Blume USA 25 Sep 1981 $3,000
32 2:20:38 Jameson Mora USA 09 Feb 1984
33 2:20:53 Matt Hensley USA 09 Nov 1987
34 2:21:03 Tim Chichester USA 07 Jul 1988
35 2:21:12 Jake Krong USA 1984
36 2:21:17 Dan Kremske USA 28 Apr 1989 $2,500
37 2:22:47 Mario Macias MEX 20 Dec 1980
38 2:22:50 Andrew Weaver USA 07 May 1990
39 2:23:09 Matt Barrett USA 04 Oct 1986
40 2:23:12 Russell Dessaix-Chin AUS 24 May 1978
46 2:25:17 Daniel Glaz USA 15 Apr 1983
50 2:25:39 Jeff Jonaitis USA 10 Apr 1981
51 2:25:39 Nobuaki Takata JPN 1977
53 2:26:08 Simon Kosgei KEN 1990
57 2:26:38 Ryan Kienzle USA 01 Dec 1985
59 2:27:05 Joseph Moore USA 06 Dec 1983
62 2:27:30 Jonathan Morales Serrano MEX 22 Jan 1980
72 2:29:29 Byron-Efren Piedra Aviles ECU 16 Aug 1982
78 2:29:53 Andrew Duncan USA 04 May 1967 $2,000
97 2:32:42 Arturs Bareikis LAT 06 Jun 1986

Results (women)

Finished Time Flags Given name Surname Alternate name Citizenship Birth date Prize money Actions
1 2:25:37 Mare Dibaba Hurssa Ibrahimova ETH 20 Oct 1989 $100,000
2 2:25:57 Florence Chebet Kiplagat KEN 27 Feb 1987 $50,000
3 2:27:02 Birhane Dibaba Adugna ETH 11 Sep 1993 $25,000
4 2:27:03 Amy Cragg Hastings USA 21 Jan 1984 $27,500
5 2:32:21 Clara Santucci Grandt USA 24 Mar 1987 $20,000
6 2:32:44 Sarah Crouch Porter USA 22 Aug 1989 $7,500
7 2:34:17 Gelete Burika Bati ETH 23 Jan 1986
8 2:34:19 Melissa White Johnson USA 15 Apr 1982 $5,000
9 2:34:38 Lauren Totten Jimison USA 12 Jul 1990 $3,500
10 2:34:47 Sarah Cummings USA 03 Jan 1989 $2,500
11 2:37:26 Lindsey Scherf USA 18 Sep 1986 $2,500
12 2:37:38 Wendy Thomas USA 19 Jan 1979 $2,500
13 2:38:06 Laura Portis USA 27 Mar 1987 $2,500
14 2:39:16 Allison Maxson USA 1986 $2,500
15 2:40:12 Whitney Bevins Lazzara USA 1981 $2,500
16 2:40:40 Jane Vongvorachoti THA 07 Jan 1984 $2,500
17 2:40:51 Lisa Uhl Koll USA 31 Aug 1987 $2,500
18 2:41:05 Andrea Duke USA 27 Feb 1979 $2,500
19 2:41:39 Loring Crowley USA 1983 $2,500
20 2:41:59 Merrilee Blackham USA 1978 $2,500
21 2:42:22 Heidi Greenwood USA 1985 $2,500
22 2:42:32 Kristen Heckert USA 07 Nov 1986 $2,500
23 2:42:34 Jeanna Composti USA 17 Feb 1981 $2,500
24 2:42:45 Caitlin Phillips USA 13 Jul 1982 $2,500
25 2:42:54 Faith Stephan USA 1987 $2,500
26 2:43:19 Alexandra Varanka USA 1985
27 2:43:20 Rosanna Lee USA 11 Jun 1976
28 2:43:26 Marie-Elena Calle ECU 25 Jul 1975
29 2:45:39 Lyndsay Tessier CAN 1978
30 2:45:51 Christina Muir ENG 06 Aug 1988
31 2:45:54 Erin Moeller USA 06 Jul 1977
32 2:45:58 Caitlin Schindel Warkentin CAN 1990
33 2:46:21 Courtney-Marie Olsen USA 1987
34 2:46:31 Angela Kidd USA 1977
35 2:46:39 Emily Kurian USA 1982 $3,000
36 2:47:11 Hanna Knurr USA 1990
37 2:47:27 Laura Hamish USA 1987
38 2:47:52 Allison Drynan CAN 31 Aug 1976
39 2:48:02 Pamela Staton USA 1987 $2,500
40 2:48:22 Samantha McClellan USA 1988
41 2:48:31 Charlotte Firth ENG 31 Dec 1984
42 2:48:36 Samantha Bower USA 1990
43 2:49:00 Kristin Smart CAN 13 Nov 1984
44 2:49:12 Angela Ortiz USA 26 Jul 1980
45 2:49:15 Amber Morrison USA 1981
46 2:49:26 Nora Colligan USA 21 Aug 1982
47 2:49:56 Nicole Casey USA 1986
48 2:49:57 Ji Li CHN 26 Aug 1981
49 2:50:01 Anna Weber USA 13 Apr 1988
50 2:50:02 Theresa Lowry USA 1974 $2,000